sensor_id;sensor_type;location;lat;lon;timestamp;temperature;humidity
652;DHT22;310;48.490;9.200;2023-02-17T00:01:57;14.70;23.10
652;DHT22;310;48.490;9.200;2023-02-17T00:04:22;14.80;22.80
652;DHT22;310;48.490;9.200;2023-02-17T00:06:48;14.80;23.10
652;DHT22;310;48.490;9.200;2023-02-17T00:09:14;14.70;23.30
652;DHT22;310;48.490;9.200;2023-02-17T00:11:39;14.60;23.00
652;DHT22;310;48.490;9.200;2023-02-17T00:14:05;14.60;22.90
652;DHT22;310;48.490;9.200;2023-02-17T00:16:32;14.60;22.90
652;DHT22;310;48.490;9.200;2023-02-17T00:18:59;14.50;23.20
652;DHT22;310;48.490;9.200;2023-02-17T00:21:28;14.30;23.80
652;DHT22;310;48.490;9.200;2023-02-17T00:23:55;14.70;22.90
652;DHT22;310;48.490;9.200;2023-02-17T00:26:21;14.70;22.90
652;DHT22;310;48.490;9.200;2023-02-17T00:28:47;14.40;23.40
652;DHT22;310;48.490;9.200;2023-02-17T00:31:15;14.20;24.00
652;DHT22;310;48.490;9.200;2023-02-17T00:33:42;14.20;23.90
652;DHT22;310;48.490;9.200;2023-02-17T00:36:11;14.40;23.60
652;DHT22;310;48.490;9.200;2023-02-17T00:38:37;14.00;24.40
652;DHT22;310;48.490;9.200;2023-02-17T00:41:03;13.90;24.70
652;DHT22;310;48.490;9.200;2023-02-17T00:43:29;14.00;24.50
652;DHT22;310;48.490;9.200;2023-02-17T00:45:54;13.90;24.80
652;DHT22;310;48.490;9.200;2023-02-17T00:48:20;14.30;24.40
652;DHT22;310;48.490;9.200;2023-02-17T00:50:46;14.60;23.90
652;DHT22;310;48.490;9.200;2023-02-17T00:53:12;14.50;23.80
652;DHT22;310;48.490;9.200;2023-02-17T00:55:38;14.30;25.20
652;DHT22;310;48.490;9.200;2023-02-17T00:58:03;14.30;24.70
652;DHT22;310;48.490;9.200;2023-02-17T01:00:29;14.20;24.60
652;DHT22;310;48.490;9.200;2023-02-17T01:02:54;14.30;24.50
652;DHT22;310;48.490;9.200;2023-02-17T01:05:20;14.30;24.10
652;DHT22;310;48.490;9.200;2023-02-17T01:07:46;14.30;24.40
652;DHT22;310;48.490;9.200;2023-02-17T01:10:11;14.10;24.80
652;DHT22;310;48.490;9.200;2023-02-17T01:12:37;14.30;24.50
652;DHT22;310;48.490;9.200;2023-02-17T01:15:04;14.40;24.20
652;DHT22;310;48.490;9.200;2023-02-17T01:17:29;14.50;24.30
652;DHT22;310;48.490;9.200;2023-02-17T01:19:56;14.20;24.80
652;DHT22;310;48.490;9.200;2023-02-17T01:22:21;14.10;24.90
652;DHT22;310;48.490;9.200;2023-02-17T01:24:47;14.50;24.40
652;DHT22;310;48.490;9.200;2023-02-17T01:27:13;14.00;25.50
652;DHT22;310;48.490;9.200;2023-02-17T01:29:38;13.80;25.20
652;DHT22;310;48.490;9.200;2023-02-17T01:32:04;14.00;25.50
652;DHT22;310;48.490;9.200;2023-02-17T01:34:29;14.00;25.30
652;DHT22;310;48.490;9.200;2023-02-17T01:36:55;13.80;25.30
652;DHT22;310;48.490;9.200;2023-02-17T01:39:21;14.10;25.60
652;DHT22;310;48.490;9.200;2023-02-17T01:41:46;14.20;24.90
652;DHT22;310;48.490;9.200;2023-02-17T01:44:15;14.60;24.30
652;DHT22;310;48.490;9.200;2023-02-17T01:46:46;14.30;24.60
652;DHT22;310;48.490;9.200;2023-02-17T01:49:23;13.90;25.30
652;DHT22;310;48.490;9.200;2023-02-17T01:51:55;13.80;25.40
652;DHT22;310;48.490;9.200;2023-02-17T01:54:26;14.30;24.70
652;DHT22;310;48.490;9.200;2023-02-17T01:56:54;14.40;24.50
652;DHT22;310;48.490;9.200;2023-02-17T01:59:21;14.40;24.60
652;DHT22;310;48.490;9.200;2023-02-17T02:01:50;14.40;24.60
652;DHT22;310;48.490;9.200;2023-02-17T02:04:19;14.40;24.60
652;DHT22;310;48.490;9.200;2023-02-17T02:06:46;14.50;24.70
652;DHT22;310;48.490;9.200;2023-02-17T02:09:28;14.60;24.60
652;DHT22;310;48.490;9.200;2023-02-17T02:11:55;14.70;24.60
652;DHT22;310;48.490;9.200;2023-02-17T02:14:21;14.60;24.70
652;DHT22;310;48.490;9.200;2023-02-17T02:17:07;14.60;25.30
652;DHT22;310;48.490;9.200;2023-02-17T02:32:26;14.30;25.90
652;DHT22;310;48.490;9.200;2023-02-17T02:35:03;14.10;26.30
652;DHT22;310;48.490;9.200;2023-02-17T02:37:52;14.10;26.90
652;DHT22;310;48.490;9.200;2023-02-17T02:40:24;13.90;27.00
652;DHT22;310;48.490;9.200;2023-02-17T02:42:51;14.10;27.10
652;DHT22;310;48.490;9.200;2023-02-17T02:45:18;14.50;26.90
652;DHT22;310;48.490;9.200;2023-02-17T02:47:49;14.20;27.00
652;DHT22;310;48.490;9.200;2023-02-17T02:58:33;14.40;27.10
652;DHT22;310;48.490;9.200;2023-02-17T03:06:28;13.70;28.50
652;DHT22;310;48.490;9.200;2023-02-17T03:09:08;14.10;28.00
652;DHT22;310;48.490;9.200;2023-02-17T03:11:35;14.00;28.90
652;DHT22;310;48.490;9.200;2023-02-17T03:14:14;13.70;28.70
652;DHT22;310;48.490;9.200;2023-02-17T03:16:42;13.70;29.20
652;DHT22;310;48.490;9.200;2023-02-17T03:19:08;13.70;28.80
652;DHT22;310;48.490;9.200;2023-02-17T03:21:44;13.70;28.80
652;DHT22;310;48.490;9.200;2023-02-17T03:24:10;14.10;28.40
652;DHT22;310;48.490;9.200;2023-02-17T03:26:36;13.70;28.90
652;DHT22;310;48.490;9.200;2023-02-17T03:29:02;13.80;28.80
652;DHT22;310;48.490;9.200;2023-02-17T03:31:28;13.80;28.90
652;DHT22;310;48.490;9.200;2023-02-17T03:33:54;13.70;29.00
652;DHT22;310;48.490;9.200;2023-02-17T03:36:19;13.90;28.60
652;DHT22;310;48.490;9.200;2023-02-17T03:38:45;13.60;29.20
652;DHT22;310;48.490;9.200;2023-02-17T03:41:10;13.30;29.80
652;DHT22;310;48.490;9.200;2023-02-17T03:43:36;13.30;29.90
652;DHT22;310;48.490;9.200;2023-02-17T03:46:02;13.40;29.80
652;DHT22;310;48.490;9.200;2023-02-17T03:48:27;13.60;29.50
652;DHT22;310;48.490;9.200;2023-02-17T03:50:53;13.60;29.70
652;DHT22;310;48.490;9.200;2023-02-17T03:53:18;14.00;29.00
652;DHT22;310;48.490;9.200;2023-02-17T03:55:44;13.90;29.10
652;DHT22;310;48.490;9.200;2023-02-17T03:58:10;13.70;29.30
652;DHT22;310;48.490;9.200;2023-02-17T04:00:36;13.50;29.70
652;DHT22;310;48.490;9.200;2023-02-17T04:03:02;13.50;29.50
652;DHT22;310;48.490;9.200;2023-02-17T04:05:27;13.60;29.30
652;DHT22;310;48.490;9.200;2023-02-17T04:07:53;14.30;28.80
652;DHT22;310;48.490;9.200;2023-02-17T04:10:19;14.00;28.60
652;DHT22;310;48.490;9.200;2023-02-17T04:12:44;13.70;29.00
652;DHT22;310;48.490;9.200;2023-02-17T04:15:10;13.20;29.80
652;DHT22;310;48.490;9.200;2023-02-17T04:17:36;13.00;30.60
652;DHT22;310;48.490;9.200;2023-02-17T04:20:04;13.30;31.20
652;DHT22;310;48.490;9.200;2023-02-17T04:22:31;13.30;30.10
652;DHT22;310;48.490;9.200;2023-02-17T04:24:56;13.60;30.70
652;DHT22;310;48.490;9.200;2023-02-17T04:27:22;13.40;30.00
652;DHT22;310;48.490;9.200;2023-02-17T04:29:47;13.80;29.70
652;DHT22;310;48.490;9.200;2023-02-17T04:32:13;13.20;30.60
652;DHT22;310;48.490;9.200;2023-02-17T04:34:39;12.90;31.70
652;DHT22;310;48.490;9.200;2023-02-17T04:37:04;12.80;32.20
652;DHT22;310;48.490;9.200;2023-02-17T04:39:30;13.30;31.10
652;DHT22;310;48.490;9.200;2023-02-17T04:41:56;13.00;31.60
652;DHT22;310;48.490;9.200;2023-02-17T04:44:21;12.70;32.20
652;DHT22;310;48.490;9.200;2023-02-17T04:46:47;12.80;32.50
652;DHT22;310;48.490;9.200;2023-02-17T04:49:12;13.20;32.10
652;DHT22;310;48.490;9.200;2023-02-17T04:51:38;13.70;31.50
652;DHT22;310;48.490;9.200;2023-02-17T04:54:04;13.30;30.80
652;DHT22;310;48.490;9.200;2023-02-17T04:56:29;13.10;31.40
652;DHT22;310;48.490;9.200;2023-02-17T04:58:55;13.20;31.10
652;DHT22;310;48.490;9.200;2023-02-17T05:01:20;13.20;31.40
652;DHT22;310;48.490;9.200;2023-02-17T05:03:46;13.30;31.10
652;DHT22;310;48.490;9.200;2023-02-17T05:06:12;13.20;31.50
652;DHT22;310;48.490;9.200;2023-02-17T05:08:37;12.80;32.60
652;DHT22;310;48.490;9.200;2023-02-17T05:11:03;13.10;33.10
652;DHT22;310;48.490;9.200;2023-02-17T05:13:29;13.00;32.30
652;DHT22;310;48.490;9.200;2023-02-17T05:15:54;13.30;32.00
652;DHT22;310;48.490;9.200;2023-02-17T05:18:20;13.40;32.30
652;DHT22;310;48.490;9.200;2023-02-17T05:20:45;13.10;32.50
652;DHT22;310;48.490;9.200;2023-02-17T05:23:11;13.00;32.60
652;DHT22;310;48.490;9.200;2023-02-17T05:25:37;13.60;33.10
652;DHT22;310;48.490;9.200;2023-02-17T05:28:02;13.10;32.40
652;DHT22;310;48.490;9.200;2023-02-17T05:30:28;13.10;32.20
652;DHT22;310;48.490;9.200;2023-02-17T05:32:54;13.20;32.10
652;DHT22;310;48.490;9.200;2023-02-17T05:35:19;13.00;32.00
652;DHT22;310;48.490;9.200;2023-02-17T05:37:45;13.60;31.80
652;DHT22;310;48.490;9.200;2023-02-17T05:40:11;13.40;31.30
652;DHT22;310;48.490;9.200;2023-02-17T05:42:36;13.10;31.00
652;DHT22;310;48.490;9.200;2023-02-17T05:45:03;13.10;30.90
652;DHT22;310;48.490;9.200;2023-02-17T05:47:28;12.90;31.20
652;DHT22;310;48.490;9.200;2023-02-17T05:49:54;13.20;30.10
652;DHT22;310;48.490;9.200;2023-02-17T05:52:20;13.20;29.90
652;DHT22;310;48.490;9.200;2023-02-17T05:54:45;13.10;29.90
652;DHT22;310;48.490;9.200;2023-02-17T05:57:11;13.40;30.30
652;DHT22;310;48.490;9.200;2023-02-17T05:59:37;13.10;29.40
652;DHT22;310;48.490;9.200;2023-02-17T06:02:02;13.50;29.70
652;DHT22;310;48.490;9.200;2023-02-17T06:04:28;13.40;28.70
652;DHT22;310;48.490;9.200;2023-02-17T06:06:53;13.40;29.90
652;DHT22;310;48.490;9.200;2023-02-17T06:09:19;13.50;29.90
652;DHT22;310;48.490;9.200;2023-02-17T06:11:45;13.00;30.30
652;DHT22;310;48.490;9.200;2023-02-17T06:14:10;13.00;30.00
652;DHT22;310;48.490;9.200;2023-02-17T06:16:36;13.40;29.80
652;DHT22;310;48.490;9.200;2023-02-17T06:19:02;13.80;28.60
652;DHT22;310;48.490;9.200;2023-02-17T06:21:29;13.80;28.60
652;DHT22;310;48.490;9.200;2023-02-17T06:23:55;13.70;29.30
652;DHT22;310;48.490;9.200;2023-02-17T06:26:21;13.30;29.00
652;DHT22;310;48.490;9.200;2023-02-17T06:28:46;13.10;29.60
652;DHT22;310;48.490;9.200;2023-02-17T06:31:12;12.80;30.00
652;DHT22;310;48.490;9.200;2023-02-17T06:33:37;13.30;29.70
652;DHT22;310;48.490;9.200;2023-02-17T06:36:03;13.30;30.50
652;DHT22;310;48.490;9.200;2023-02-17T06:38:29;13.30;29.30
652;DHT22;310;48.490;9.200;2023-02-17T06:40:54;13.90;28.50
652;DHT22;310;48.490;9.200;2023-02-17T06:43:20;13.80;28.20
652;DHT22;310;48.490;9.200;2023-02-17T06:45:45;13.90;28.30
652;DHT22;310;48.490;9.200;2023-02-17T06:48:11;13.50;28.50
652;DHT22;310;48.490;9.200;2023-02-17T06:50:37;14.00;28.90
652;DHT22;310;48.490;9.200;2023-02-17T06:53:03;13.70;28.10
652;DHT22;310;48.490;9.200;2023-02-17T06:55:28;13.70;28.40
652;DHT22;310;48.490;9.200;2023-02-17T06:57:54;14.00;27.90
652;DHT22;310;48.490;9.200;2023-02-17T07:00:20;13.80;28.20
652;DHT22;310;48.490;9.200;2023-02-17T07:02:46;13.70;28.40
652;DHT22;310;48.490;9.200;2023-02-17T07:05:11;13.70;28.40
652;DHT22;310;48.490;9.200;2023-02-17T07:07:37;13.80;28.30
652;DHT22;310;48.490;9.200;2023-02-17T07:10:03;13.60;28.40
652;DHT22;310;48.490;9.200;2023-02-17T07:12:29;13.20;29.90
652;DHT22;310;48.490;9.200;2023-02-17T07:14:55;13.20;29.50
652;DHT22;310;48.490;9.200;2023-02-17T07:17:21;13.60;28.90
652;DHT22;310;48.490;9.200;2023-02-17T07:19:46;13.80;28.60
652;DHT22;310;48.490;9.200;2023-02-17T07:22:12;13.80;28.50
652;DHT22;310;48.490;9.200;2023-02-17T07:24:37;13.80;29.50
652;DHT22;310;48.490;9.200;2023-02-17T07:27:06;14.10;29.20
652;DHT22;310;48.490;9.200;2023-02-17T07:29:33;13.60;28.70
652;DHT22;310;48.490;9.200;2023-02-17T07:31:58;13.40;29.30
652;DHT22;310;48.490;9.200;2023-02-17T07:34:24;13.20;30.00
652;DHT22;310;48.490;9.200;2023-02-17T07:36:50;13.00;30.10
652;DHT22;310;48.490;9.200;2023-02-17T07:39:15;12.80;30.40
652;DHT22;310;48.490;9.200;2023-02-17T07:41:41;13.30;30.20
652;DHT22;310;48.490;9.200;2023-02-17T07:44:07;13.30;30.10
652;DHT22;310;48.490;9.200;2023-02-17T07:46:34;13.60;30.40
652;DHT22;310;48.490;9.200;2023-02-17T07:49:00;13.80;29.10
652;DHT22;310;48.490;9.200;2023-02-17T07:51:25;13.30;30.00
652;DHT22;310;48.490;9.200;2023-02-17T07:53:51;13.70;29.20
652;DHT22;310;48.490;9.200;2023-02-17T07:56:19;13.80;29.50
652;DHT22;310;48.490;9.200;2023-02-17T07:58:46;13.70;29.20
652;DHT22;310;48.490;9.200;2023-02-17T08:01:18;14.00;29.40
652;DHT22;310;48.490;9.200;2023-02-17T08:03:45;14.30;28.90
652;DHT22;310;48.490;9.200;2023-02-17T08:06:16;14.10;29.00
652;DHT22;310;48.490;9.200;2023-02-17T08:08:43;13.50;31.00
652;DHT22;310;48.490;9.200;2023-02-17T08:11:29;13.70;30.40
652;DHT22;310;48.490;9.200;2023-02-17T08:14:13;13.80;30.40
652;DHT22;310;48.490;9.200;2023-02-17T08:16:39;13.80;30.80
652;DHT22;310;48.490;9.200;2023-02-17T08:19:04;13.70;30.90
652;DHT22;310;48.490;9.200;2023-02-17T08:21:30;13.50;31.70
652;DHT22;310;48.490;9.200;2023-02-17T08:23:56;13.90;31.10
652;DHT22;310;48.490;9.200;2023-02-17T08:26:22;13.70;31.50
652;DHT22;310;48.490;9.200;2023-02-17T08:28:48;14.00;30.90
652;DHT22;310;48.490;9.200;2023-02-17T08:31:16;13.30;32.90
652;DHT22;310;48.490;9.200;2023-02-17T08:33:42;13.60;32.60
652;DHT22;310;48.490;9.200;2023-02-17T08:36:08;14.20;31.40
652;DHT22;310;48.490;9.200;2023-02-17T08:38:34;14.00;31.80
652;DHT22;310;48.490;9.200;2023-02-17T08:40:59;13.80;32.50
652;DHT22;310;48.490;9.200;2023-02-17T08:43:25;13.80;33.20
652;DHT22;310;48.490;9.200;2023-02-17T08:45:50;14.10;32.60
652;DHT22;310;48.490;9.200;2023-02-17T08:48:16;14.30;31.90
652;DHT22;310;48.490;9.200;2023-02-17T08:50:42;14.00;33.30
652;DHT22;310;48.490;9.200;2023-02-17T08:53:07;13.40;34.60
652;DHT22;310;48.490;9.200;2023-02-17T08:55:34;13.40;34.70
652;DHT22;310;48.490;9.200;2023-02-17T08:57:59;13.40;35.40
652;DHT22;310;48.490;9.200;2023-02-17T09:00:25;13.60;34.10
652;DHT22;310;48.490;9.200;2023-02-17T09:02:51;13.90;33.20
652;DHT22;310;48.490;9.200;2023-02-17T09:05:16;13.90;33.20
652;DHT22;310;48.490;9.200;2023-02-17T09:07:42;14.10;32.70
652;DHT22;310;48.490;9.200;2023-02-17T09:10:12;14.10;33.40
652;DHT22;310;48.490;9.200;2023-02-17T09:12:38;14.00;33.10
652;DHT22;310;48.490;9.200;2023-02-17T09:15:05;14.50;32.50
652;DHT22;310;48.490;9.200;2023-02-17T09:17:31;14.20;32.60
652;DHT22;310;48.490;9.200;2023-02-17T09:19:56;14.00;33.50
652;DHT22;310;48.490;9.200;2023-02-17T09:22:22;14.30;33.10
652;DHT22;310;48.490;9.200;2023-02-17T09:24:47;14.60;32.50
652;DHT22;310;48.490;9.200;2023-02-17T09:27:13;14.50;33.10
652;DHT22;310;48.490;9.200;2023-02-17T09:29:38;14.30;33.70
652;DHT22;310;48.490;9.200;2023-02-17T09:32:08;14.50;33.20
652;DHT22;310;48.490;9.200;2023-02-17T09:34:36;14.30;33.80
652;DHT22;310;48.490;9.200;2023-02-17T09:37:02;14.50;33.60
652;DHT22;310;48.490;9.200;2023-02-17T09:39:28;14.90;32.60
652;DHT22;310;48.490;9.200;2023-02-17T09:41:53;14.70;33.20
652;DHT22;310;48.490;9.200;2023-02-17T09:44:21;14.70;33.50
652;DHT22;310;48.490;9.200;2023-02-17T09:49:23;14.70;34.30
652;DHT22;310;48.490;9.200;2023-02-17T09:52:21;14.40;34.50
652;DHT22;310;48.490;9.200;2023-02-17T09:55:08;14.30;35.20
652;DHT22;310;48.490;9.200;2023-02-17T09:57:58;14.60;34.50
652;DHT22;310;48.490;9.200;2023-02-17T10:00:29;14.40;34.70
652;DHT22;310;48.490;9.200;2023-02-17T10:03:03;14.40;35.30
652;DHT22;310;48.490;9.200;2023-02-17T10:05:37;14.50;35.10
652;DHT22;310;48.490;9.200;2023-02-17T10:08:25;14.50;35.20
652;DHT22;310;48.490;9.200;2023-02-17T10:10:53;14.80;34.80
652;DHT22;310;48.490;9.200;2023-02-17T10:13:21;14.60;34.90
652;DHT22;310;48.490;9.200;2023-02-17T10:15:51;14.90;34.50
652;DHT22;310;48.490;9.200;2023-02-17T10:18:36;15.10;33.80
652;DHT22;310;48.490;9.200;2023-02-17T10:21:07;14.80;34.80
652;DHT22;310;48.490;9.200;2023-02-17T10:23:36;14.40;36.40
652;DHT22;310;48.490;9.200;2023-02-17T10:29:13;14.80;35.40
652;DHT22;310;48.490;9.200;2023-02-17T10:34:45;14.90;35.70
652;DHT22;310;48.490;9.200;2023-02-17T10:37:17;15.40;33.90
652;DHT22;310;48.490;9.200;2023-02-17T10:39:50;15.60;33.90
652;DHT22;310;48.490;9.200;2023-02-17T10:42:21;15.60;33.50
652;DHT22;310;48.490;9.200;2023-02-17T10:44:50;15.70;33.50
652;DHT22;310;48.490;9.200;2023-02-17T10:47:18;15.50;34.20
652;DHT22;310;48.490;9.200;2023-02-17T10:49:48;15.50;34.60
652;DHT22;310;48.490;9.200;2023-02-17T10:52:21;15.30;35.00
652;DHT22;310;48.490;9.200;2023-02-17T10:54:55;15.50;35.00
652;DHT22;310;48.490;9.200;2023-02-17T10:57:26;15.20;35.30
652;DHT22;310;48.490;9.200;2023-02-17T10:59:54;16.20;33.20
652;DHT22;310;48.490;9.200;2023-02-17T11:02:24;16.80;32.00
652;DHT22;310;48.490;9.200;2023-02-17T11:04:51;16.00;33.50
652;DHT22;310;48.490;9.200;2023-02-17T11:07:26;16.30;33.00
652;DHT22;310;48.490;9.200;2023-02-17T11:09:59;15.70;35.00
652;DHT22;310;48.490;9.200;2023-02-17T11:12:38;15.80;35.20
652;DHT22;310;48.490;9.200;2023-02-17T11:15:14;15.40;35.30
652;DHT22;310;48.490;9.200;2023-02-17T11:17:42;15.70;34.90
652;DHT22;310;48.490;9.200;2023-02-17T11:23:22;16.30;34.00
652;DHT22;310;48.490;9.200;2023-02-17T11:26:09;16.40;33.70
652;DHT22;310;48.490;9.200;2023-02-17T11:28:35;16.80;33.20
652;DHT22;310;48.490;9.200;2023-02-17T11:31:02;17.50;31.30
652;DHT22;310;48.490;9.200;2023-02-17T11:33:30;17.00;32.10
652;DHT22;310;48.490;9.200;2023-02-17T11:35:57;16.50;33.40
652;DHT22;310;48.490;9.200;2023-02-17T11:38:26;16.90;33.00
652;DHT22;310;48.490;9.200;2023-02-17T11:40:58;15.90;35.30
652;DHT22;310;48.490;9.200;2023-02-17T11:43:24;15.60;36.70
652;DHT22;310;48.490;9.200;2023-02-17T12:19:36;15.40;37.40
652;DHT22;310;48.490;9.200;2023-02-17T12:22:55;15.50;38.20
652;DHT22;310;48.490;9.200;2023-02-17T12:25:05;15.50;37.80
652;DHT22;310;48.490;9.200;2023-02-17T12:30:26;15.70;37.60
652;DHT22;310;48.490;9.200;2023-02-17T12:33:32;15.70;37.60
652;DHT22;310;48.490;9.200;2023-02-17T12:36:12;15.00;39.50
652;DHT22;310;48.490;9.200;2023-02-17T12:38:41;15.00;39.70
652;DHT22;310;48.490;9.200;2023-02-17T12:41:33;14.80;40.40
652;DHT22;310;48.490;9.200;2023-02-17T12:44:16;14.70;40.40
652;DHT22;310;48.490;9.200;2023-02-17T12:46:46;14.80;40.20
652;DHT22;310;48.490;9.200;2023-02-17T12:51:46;15.60;38.10
652;DHT22;310;48.490;9.200;2023-02-17T12:59:36;15.00;40.20
652;DHT22;310;48.490;9.200;2023-02-17T13:02:04;15.30;39.00
652;DHT22;310;48.490;9.200;2023-02-17T13:04:32;14.80;40.30
652;DHT22;310;48.490;9.200;2023-02-17T13:08:02;15.40;39.10
652;DHT22;310;48.490;9.200;2023-02-17T13:10:01;15.70;38.00
652;DHT22;310;48.490;9.200;2023-02-17T13:14:57;15.50;38.10
652;DHT22;310;48.490;9.200;2023-02-17T13:20:23;15.60;38.20
652;DHT22;310;48.490;9.200;2023-02-17T13:22:49;15.80;37.70
652;DHT22;310;48.490;9.200;2023-02-17T13:25:30;15.70;37.60
652;DHT22;310;48.490;9.200;2023-02-17T13:27:58;15.40;39.10
652;DHT22;310;48.490;9.200;2023-02-17T13:33:27;16.20;37.00
652;DHT22;310;48.490;9.200;2023-02-17T13:35:51;15.90;38.70
652;DHT22;310;48.490;9.200;2023-02-17T13:38:28;15.70;37.70
652;DHT22;310;48.490;9.200;2023-02-17T13:40:58;15.90;37.80
652;DHT22;310;48.490;9.200;2023-02-17T13:43:24;15.80;38.50
652;DHT22;310;48.490;9.200;2023-02-17T13:46:00;16.00;38.00
652;DHT22;310;48.490;9.200;2023-02-17T13:48:31;16.70;36.70
652;DHT22;310;48.490;9.200;2023-02-17T13:50:58;16.70;35.20
652;DHT22;310;48.490;9.200;2023-02-17T13:56:00;16.30;36.20
652;DHT22;310;48.490;9.200;2023-02-17T13:58:35;16.50;35.70
652;DHT22;310;48.490;9.200;2023-02-17T14:01:02;16.40;36.00
652;DHT22;310;48.490;9.200;2023-02-17T14:03:41;16.50;36.00
652;DHT22;310;48.490;9.200;2023-02-17T14:06:35;16.80;35.20
652;DHT22;310;48.490;9.200;2023-02-17T14:09:21;16.60;35.70
652;DHT22;310;48.490;9.200;2023-02-17T14:11:48;17.00;34.70
652;DHT22;310;48.490;9.200;2023-02-17T14:14:14;17.80;32.90
652;DHT22;310;48.490;9.200;2023-02-17T14:16:41;16.90;34.80
652;DHT22;310;48.490;9.200;2023-02-17T14:19:15;16.90;35.20
652;DHT22;310;48.490;9.200;2023-02-17T14:24:30;17.40;34.10
652;DHT22;310;48.490;9.200;2023-02-17T14:27:02;17.00;35.00
652;DHT22;310;48.490;9.200;2023-02-17T14:29:41;18.70;36.30
652;DHT22;310;48.490;9.200;2023-02-17T14:34:53;17.30;34.40
652;DHT22;310;48.490;9.200;2023-02-17T14:37:24;16.80;35.60
652;DHT22;310;48.490;9.200;2023-02-17T14:39:50;17.10;35.10
652;DHT22;310;48.490;9.200;2023-02-17T14:42:15;16.60;36.20
652;DHT22;310;48.490;9.200;2023-02-17T14:44:41;16.40;36.90
652;DHT22;310;48.490;9.200;2023-02-17T14:47:07;16.80;36.10
652;DHT22;310;48.490;9.200;2023-02-17T14:49:33;16.60;36.70
652;DHT22;310;48.490;9.200;2023-02-17T14:51:59;17.70;33.20
652;DHT22;310;48.490;9.200;2023-02-17T14:54:27;17.70;33.50
652;DHT22;310;48.490;9.200;2023-02-17T14:57:06;17.00;35.60
652;DHT22;310;48.490;9.200;2023-02-17T14:59:32;17.30;34.80
652;DHT22;310;48.490;9.200;2023-02-17T15:01:58;16.70;36.30
652;DHT22;310;48.490;9.200;2023-02-17T15:04:24;17.30;35.30
652;DHT22;310;48.490;9.200;2023-02-17T15:06:50;17.50;34.50
652;DHT22;310;48.490;9.200;2023-02-17T15:09:22;17.30;34.90
652;DHT22;310;48.490;9.200;2023-02-17T15:11:50;17.10;35.20
652;DHT22;310;48.490;9.200;2023-02-17T15:14:18;16.60;36.70
652;DHT22;310;48.490;9.200;2023-02-17T15:16:45;17.20;35.80
652;DHT22;310;48.490;9.200;2023-02-17T15:21:43;16.50;36.90
652;DHT22;310;48.490;9.200;2023-02-17T15:24:22;16.40;37.40
652;DHT22;310;48.490;9.200;2023-02-17T15:26:48;16.30;37.90
652;DHT22;310;48.490;9.200;2023-02-17T15:29:19;16.70;37.10
652;DHT22;310;48.490;9.200;2023-02-17T15:31:46;16.90;36.20
652;DHT22;310;48.490;9.200;2023-02-17T15:34:14;16.70;36.60
652;DHT22;310;48.490;9.200;2023-02-17T15:36:41;16.70;36.60
652;DHT22;310;48.490;9.200;2023-02-17T15:39:26;16.80;36.60
652;DHT22;310;48.490;9.200;2023-02-17T15:41:54;17.00;36.00
652;DHT22;310;48.490;9.200;2023-02-17T15:44:23;17.00;36.50
652;DHT22;310;48.490;9.200;2023-02-17T15:46:50;16.80;36.40
652;DHT22;310;48.490;9.200;2023-02-17T15:49:16;17.20;34.80
652;DHT22;310;48.490;9.200;2023-02-17T15:51:42;17.20;35.10
652;DHT22;310;48.490;9.200;2023-02-17T15:54:08;16.60;36.40
652;DHT22;310;48.490;9.200;2023-02-17T15:56:50;16.50;36.90
652;DHT22;310;48.490;9.200;2023-02-17T15:59:22;16.30;37.60
652;DHT22;310;48.490;9.200;2023-02-17T16:01:48;16.40;37.30
652;DHT22;310;48.490;9.200;2023-02-17T16:04:15;16.30;37.40
652;DHT22;310;48.490;9.200;2023-02-17T16:06:41;16.10;37.60
652;DHT22;310;48.490;9.200;2023-02-17T16:09:09;16.10;38.00
652;DHT22;310;48.490;9.200;2023-02-17T16:11:41;16.00;37.90
652;DHT22;310;48.490;9.200;2023-02-17T16:14:20;16.60;36.70
652;DHT22;310;48.490;9.200;2023-02-17T16:16:47;16.10;37.90
652;DHT22;310;48.490;9.200;2023-02-17T16:19:12;16.20;37.90
652;DHT22;310;48.490;9.200;2023-02-17T16:21:38;16.40;37.30
652;DHT22;310;48.490;9.200;2023-02-17T16:24:04;16.40;37.00
652;DHT22;310;48.490;9.200;2023-02-17T16:26:33;16.60;36.30
652;DHT22;310;48.490;9.200;2023-02-17T16:29:16;16.80;36.00
652;DHT22;310;48.490;9.200;2023-02-17T16:31:42;16.80;35.80
652;DHT22;310;48.490;9.200;2023-02-17T16:34:19;16.50;36.50
652;DHT22;310;48.490;9.200;2023-02-17T16:36:47;16.00;38.00
652;DHT22;310;48.490;9.200;2023-02-17T16:39:15;16.40;36.60
652;DHT22;310;48.490;9.200;2023-02-17T16:41:41;16.50;36.30
652;DHT22;310;48.490;9.200;2023-02-17T16:44:10;16.40;36.60
652;DHT22;310;48.490;9.200;2023-02-17T16:46:36;16.30;36.50
652;DHT22;310;48.490;9.200;2023-02-17T16:49:14;16.30;36.80
652;DHT22;310;48.490;9.200;2023-02-17T16:51:40;16.10;37.10
652;DHT22;310;48.490;9.200;2023-02-17T16:54:06;15.90;37.80
652;DHT22;310;48.490;9.200;2023-02-17T16:56:36;15.90;37.80
652;DHT22;310;48.490;9.200;2023-02-17T16:59:04;16.30;36.90
652;DHT22;310;48.490;9.200;2023-02-17T17:01:30;16.60;35.70
652;DHT22;310;48.490;9.200;2023-02-17T17:03:56;16.40;36.20
652;DHT22;310;48.490;9.200;2023-02-17T17:06:23;16.40;36.50
652;DHT22;310;48.490;9.200;2023-02-17T17:08:49;16.40;36.40
652;DHT22;310;48.490;9.200;2023-02-17T17:11:17;16.60;35.70
652;DHT22;310;48.490;9.200;2023-02-17T17:13:44;16.80;35.10
652;DHT22;310;48.490;9.200;2023-02-17T17:16:26;16.50;35.90
652;DHT22;310;48.490;9.200;2023-02-17T17:18:54;16.00;37.80
652;DHT22;310;48.490;9.200;2023-02-17T17:21:19;16.00;38.00
652;DHT22;310;48.490;9.200;2023-02-17T17:23:45;16.00;37.90
652;DHT22;310;48.490;9.200;2023-02-17T17:28:58;15.90;37.90
652;DHT22;310;48.490;9.200;2023-02-17T17:31:24;16.00;37.90
652;DHT22;310;48.490;9.200;2023-02-17T17:33:50;16.10;37.70
652;DHT22;310;48.490;9.200;2023-02-17T17:36:34;16.20;37.40
652;DHT22;310;48.490;9.200;2023-02-17T17:39:02;16.10;37.70
652;DHT22;310;48.490;9.200;2023-02-17T17:41:28;16.10;38.00
652;DHT22;310;48.490;9.200;2023-02-17T17:43:54;16.10;37.90
652;DHT22;310;48.490;9.200;2023-02-17T17:46:23;16.20;37.30
652;DHT22;310;48.490;9.200;2023-02-17T17:48:49;16.20;37.50
652;DHT22;310;48.490;9.200;2023-02-17T17:51:18;16.00;37.90
652;DHT22;310;48.490;9.200;2023-02-17T17:53:44;16.00;37.90
652;DHT22;310;48.490;9.200;2023-02-17T17:56:14;16.10;38.00
652;DHT22;310;48.490;9.200;2023-02-17T17:58:40;16.00;37.90
652;DHT22;310;48.490;9.200;2023-02-17T18:01:06;16.00;38.00
652;DHT22;310;48.490;9.200;2023-02-17T18:03:31;15.90;38.40
652;DHT22;310;48.490;9.200;2023-02-17T18:05:57;16.00;38.50
652;DHT22;310;48.490;9.200;2023-02-17T18:08:23;16.00;37.90
652;DHT22;310;48.490;9.200;2023-02-17T18:10:49;16.00;38.00
652;DHT22;310;48.490;9.200;2023-02-17T18:13:15;16.10;38.00
652;DHT22;310;48.490;9.200;2023-02-17T18:15:42;15.90;39.00
652;DHT22;310;48.490;9.200;2023-02-17T18:18:08;16.20;38.00
652;DHT22;310;48.490;9.200;2023-02-17T18:20:34;16.30;37.10
652;DHT22;310;48.490;9.200;2023-02-17T18:22:59;16.10;37.90
652;DHT22;310;48.490;9.200;2023-02-17T18:25:25;15.90;37.80
652;DHT22;310;48.490;9.200;2023-02-17T18:27:50;15.80;38.00